createdAt,value
2019-01-26T00:01:20.585Z,100296.66
2019-01-26T00:03:49.645Z,100288.72
2019-01-26T00:06:18.670Z,100279.52
2019-01-26T00:08:47.755Z,100269.53
2019-01-26T00:11:16.786Z,100269.97
2019-01-26T00:13:45.809Z,100271.70
2019-01-26T00:16:17.188Z,100273.80
2019-01-26T00:18:45.663Z,100270.89
2019-01-26T00:21:14.691Z,100263.41
2019-01-26T00:23:43.747Z,100274.69
2019-01-26T00:26:13.078Z,100268.02
2019-01-26T00:28:42.106Z,100271.41
2019-01-26T00:31:11.462Z,100275.16
2019-01-26T00:33:43.276Z,100265.61
2019-01-26T00:36:11.549Z,100261.88
2019-01-26T00:38:40.575Z,100249.80
2019-01-26T00:41:09.653Z,100243.95
2019-01-26T00:43:38.731Z,100239.01
2019-01-26T00:46:07.800Z,100234.88
2019-01-26T00:48:36.828Z,100226.53
2019-01-26T00:51:05.889Z,100223.19
2019-01-26T00:53:35.134Z,100229.07
2019-01-26T00:56:04.212Z,100228.26
2019-01-26T00:58:33.243Z,100220.31
2019-01-26T01:01:02.310Z,100224.92
2019-01-26T01:03:31.348Z,100225.33
2019-01-26T01:06:00.356Z,100226.20
2019-01-26T01:08:29.414Z,100226.62
2019-01-26T01:10:58.445Z,100222.89
2019-01-26T01:13:27.508Z,100232.92
2019-01-26T01:15:56.575Z,100221.62
2019-01-26T01:18:25.611Z,100222.48
2019-01-26T01:20:54.743Z,100214.56
2019-01-26T01:23:23.719Z,100215.39
2019-01-26T01:25:52.778Z,100218.32
2019-01-26T01:28:21.825Z,100211.66
2019-01-26T01:30:50.851Z,100216.27
2019-01-26T01:33:19.920Z,100207.50
2019-01-26T01:35:48.976Z,100201.66
2019-01-26T01:38:18.075Z,100200.00
2019-01-26T01:40:47.146Z,100197.91
2019-01-26T01:43:16.185Z,100201.25
2019-01-26T01:45:45.242Z,100202.52
2019-01-26T01:48:14.318Z,100196.28
2019-01-26T01:50:43.344Z,100185.85
2019-01-26T01:53:12.365Z,100180.84
2019-01-26T01:55:41.472Z,100182.09
2019-01-26T01:58:10.494Z,100188.38
2019-01-26T02:00:39.524Z,100199.28
2019-01-26T02:03:08.591Z,100195.11
2019-01-26T02:05:37.657Z,100186.35
2019-01-26T02:08:06.683Z,100188.86
2019-01-26T02:10:36.135Z,100191.80
2019-01-26T02:13:05.213Z,100188.88
2019-01-26T02:15:34.240Z,100182.20
2019-01-26T02:18:03.423Z,100196.02
2019-01-26T02:20:32.504Z,100189.73
2019-01-26T02:23:01.530Z,100191.84
2019-01-26T02:25:30.553Z,100188.92
2019-01-26T02:27:59.684Z,100190.17
2019-01-26T02:30:28.703Z,100188.09
2019-01-26T02:32:57.728Z,100188.92
2019-01-26T02:35:26.793Z,100196.45
2019-01-26T02:37:55.813Z,100198.13
2019-01-26T02:40:24.897Z,100191.02
2019-01-26T02:42:53.852Z,100186.84
2019-01-26T02:45:22.870Z,100180.56
2019-01-26T02:47:51.935Z,100180.98
2019-01-26T02:50:20.972Z,100187.67
2019-01-26T02:52:49.994Z,100173.45
2019-01-26T02:55:19.167Z,100178.50
2019-01-26T02:57:48.532Z,100169.29
2019-01-26T03:00:22.405Z,100170.55
2019-01-26T03:02:51.755Z,100171.80
2019-01-26T03:05:20.785Z,100169.28
2019-01-26T03:07:49.862Z,100161.75
2019-01-26T03:10:20.824Z,100152.53
2019-01-26T03:12:49.902Z,100153.37
2019-01-26T03:15:20.719Z,100154.20
2019-01-26T03:17:49.834Z,100152.11
2019-01-26T03:20:19.821Z,100155.87
2019-01-26T03:22:48.941Z,100155.02
2019-01-26T03:25:18.315Z,100152.92
2019-01-26T03:27:47.340Z,100152.49
2019-01-26T03:30:21.177Z,100147.88
2019-01-26T03:32:50.290Z,100149.97
2019-01-26T03:35:19.491Z,100139.06
2019-01-26T03:37:49.024Z,100134.86
2019-01-26T03:40:19.764Z,100136.52
2019-01-26T03:42:48.942Z,100135.67
2019-01-26T03:45:18.176Z,100146.55
2019-01-26T03:47:47.433Z,100144.02
2019-01-26T03:50:16.832Z,100130.60
2019-01-26T03:52:45.903Z,100133.95
2019-01-26T03:55:16.923Z,100139.81
2019-01-26T03:57:45.968Z,100142.36
2019-01-26T04:00:17.910Z,100137.74
2019-01-26T04:02:46.930Z,100132.30
2019-01-26T04:05:16.251Z,100128.94
2019-01-26T04:07:45.319Z,100124.74
2019-01-26T04:10:14.996Z,100123.47
2019-01-26T04:12:44.050Z,100121.79
2019-01-26T04:15:13.915Z,100123.89
2019-01-26T04:17:42.946Z,100125.55
2019-01-26T04:20:14.249Z,100124.27
2019-01-26T04:22:43.307Z,100119.22
2019-01-26T04:25:12.533Z,100117.09
2019-01-26T04:27:41.603Z,100115.39
2019-01-26T04:30:13.835Z,100106.14
2019-01-26T04:32:42.902Z,100102.76
2019-01-26T04:35:11.940Z,100097.28
2019-01-26T04:37:41.017Z,100098.52
2019-01-26T04:40:12.184Z,100099.33
2019-01-26T04:42:41.192Z,100088.42
2019-01-26T04:45:13.175Z,100084.61
2019-01-26T04:47:42.186Z,100085.86
2019-01-26T04:50:14.404Z,100077.86
2019-01-26T04:52:43.414Z,100078.69
2019-01-26T04:55:12.638Z,100082.44
2019-01-26T04:57:42.104Z,100078.25
2019-01-26T05:00:15.092Z,100076.53
2019-01-26T05:02:44.149Z,100078.20
2019-01-26T05:05:13.353Z,100068.09
2019-01-26T05:07:42.382Z,100062.62
2019-01-26T05:10:12.741Z,100069.72
2019-01-26T05:12:41.755Z,100066.33
2019-01-26T05:15:11.725Z,100061.27
2019-01-26T05:17:40.737Z,100058.33
2019-01-26T05:20:16.212Z,100057.93
2019-01-26T05:22:45.227Z,100048.69
2019-01-26T05:25:14.486Z,100049.98
2019-01-26T05:27:43.500Z,100052.08
2019-01-26T05:30:16.074Z,100057.13
2019-01-26T05:32:45.081Z,100063.86
2019-01-26T05:35:14.194Z,100059.23
2019-01-26T05:37:43.241Z,100060.91
2019-01-26T05:40:13.624Z,100062.59
2019-01-26T05:42:42.672Z,100065.55
2019-01-26T05:45:14.071Z,100060.91
2019-01-26T05:47:48.756Z,100058.80
2019-01-26T05:50:16.872Z,100062.16
2019-01-26T05:52:45.935Z,100060.04
2019-01-26T05:55:15.105Z,100055.00
2019-01-26T05:57:44.117Z,100049.97
2019-01-26T06:00:17.304Z,100058.37
2019-01-26T06:02:46.629Z,100065.52
2019-01-26T06:05:15.878Z,100065.48
2019-01-26T06:07:44.915Z,100063.36
2019-01-26T06:10:14.171Z,100054.11
2019-01-26T06:12:43.198Z,100054.92
2019-01-26T06:15:12.676Z,100056.58
2019-01-26T06:17:41.744Z,100052.83
2019-01-26T06:20:11.337Z,100051.14
2019-01-26T06:22:40.721Z,100045.23
2019-01-26T06:25:11.165Z,100044.37
2019-01-26T06:27:40.182Z,100039.33
2019-01-26T06:30:12.976Z,100041.84
2019-01-26T06:32:42.081Z,100036.42
2019-01-26T06:35:11.222Z,100043.54
2019-01-26T06:37:40.237Z,100032.23
2019-01-26T06:40:11.406Z,100039.35
2019-01-26T06:42:40.669Z,100042.69
2019-01-26T06:45:10.426Z,100043.91
2019-01-26T06:47:39.446Z,100035.95
2019-01-26T06:50:11.486Z,100040.96
2019-01-26T06:52:40.492Z,100045.15
2019-01-26T06:55:10.497Z,100035.10
2019-01-26T06:57:39.506Z,100040.54
2019-01-26T07:00:12.276Z,100031.72
2019-01-26T07:02:41.288Z,100035.09
2019-01-26T07:05:27.799Z,100036.74
2019-01-26T07:07:56.817Z,100035.91
2019-01-26T07:10:25.880Z,100032.58
2019-01-26T07:12:54.899Z,100031.69
2019-01-26T07:15:23.912Z,100032.55
2019-01-26T07:17:52.994Z,100037.17
2019-01-26T07:20:22.013Z,100045.53
2019-01-26T07:22:51.077Z,100039.64
2019-01-26T07:25:20.274Z,100034.16
2019-01-26T07:27:49.338Z,100031.64
2019-01-26T07:30:20.112Z,100044.21
2019-01-26T07:32:49.226Z,100041.69
2019-01-26T07:35:18.291Z,100040.00
2019-01-26T07:37:47.602Z,100045.88
2019-01-26T07:40:18.665Z,100045.06
2019-01-26T07:42:48.128Z,100057.22
2019-01-26T07:45:17.163Z,100051.73
2019-01-26T07:47:46.218Z,100056.32
2019-01-26T07:50:19.251Z,100048.71
2019-01-26T07:52:48.351Z,100050.77
2019-01-26T07:55:17.537Z,100055.78
2019-01-26T07:57:46.595Z,100064.53
2019-01-26T08:00:21.440Z,100064.09
2019-01-26T08:02:50.499Z,100061.55
2019-01-26T08:05:19.633Z,100064.02
2019-01-26T08:07:48.783Z,100073.22
2019-01-26T08:10:20.182Z,100067.64
2019-01-26T08:12:50.363Z,100071.84
2019-01-26T08:15:22.065Z,100078.88
2019-01-26T08:17:51.123Z,100077.13
2019-01-26T08:20:20.415Z,100079.55
2019-01-26T08:22:49.433Z,100071.91
2019-01-26T08:25:18.465Z,100075.65
2019-01-26T08:27:47.549Z,100076.97
2019-01-26T08:30:18.883Z,100076.05
2019-01-26T08:32:47.893Z,100079.27
2019-01-26T08:35:17.354Z,100081.80
2019-01-26T08:37:46.508Z,100082.65
2019-01-26T08:40:16.548Z,100081.81
2019-01-26T08:42:45.582Z,100075.88
2019-01-26T08:45:14.992Z,100081.37
2019-01-26T08:47:44.153Z,100081.73
2019-01-26T08:50:17.020Z,100090.09
2019-01-26T08:52:46.149Z,100084.55
2019-01-26T08:55:18.199Z,100084.19
2019-01-26T08:57:46.157Z,100088.34
2019-01-26T09:00:20.529Z,100089.96
2019-01-26T09:03:09.368Z,100083.65
2019-01-26T09:05:52.181Z,100087.30
2019-01-26T09:08:21.184Z,100087.13
2019-01-26T09:10:50.205Z,100080.63
2019-01-26T09:13:19.259Z,100078.16
2019-01-26T09:15:48.308Z,100075.76
2019-01-26T09:18:17.373Z,100074.55
2019-01-26T09:20:46.417Z,100074.33
2019-01-26T09:23:15.434Z,100072.77
2019-01-26T09:25:44.641Z,100073.41
2019-01-26T09:28:14.235Z,100070.55
2019-01-26T09:30:43.289Z,100072.27
2019-01-26T09:33:12.304Z,100075.70
2019-01-26T09:35:41.331Z,100073.05
2019-01-26T09:38:10.422Z,100069.66
2019-01-26T09:40:39.434Z,100070.21
2019-01-26T09:43:09.091Z,100079.16
2019-01-26T09:45:38.102Z,100078.45
2019-01-26T09:48:07.558Z,100074.86
2019-01-26T09:50:36.914Z,100073.13
2019-01-26T09:53:06.083Z,100068.53
2019-01-26T09:55:35.110Z,100069.09
2019-01-26T09:58:04.634Z,100063.59
2019-01-26T10:00:33.684Z,100064.19
2019-01-26T10:03:02.736Z,100074.22
2019-01-26T10:05:31.777Z,100080.02
2019-01-26T10:08:01.206Z,100081.44
2019-01-26T10:10:30.272Z,100078.91
2019-01-26T10:12:59.277Z,100070.37
2019-01-26T10:15:30.739Z,100070.64
2019-01-26T10:17:59.788Z,100072.95
2019-01-26T10:20:30.296Z,100067.62
2019-01-26T10:22:59.347Z,100072.09
2019-01-26T10:25:28.505Z,100067.05
2019-01-26T10:27:57.573Z,100071.66
2019-01-26T10:30:32.932Z,100069.44
2019-01-26T10:33:01.999Z,100063.66
2019-01-26T10:35:48.788Z,100063.61
2019-01-26T10:38:17.841Z,100060.14
2019-01-26T10:41:04.882Z,100061.50
2019-01-26T10:43:36.848Z,100063.97
2019-01-26T10:46:05.866Z,100062.38
2019-01-26T10:48:35.414Z,100055.94
2019-01-26T10:51:04.591Z,100048.58
2019-01-26T10:53:33.949Z,100055.14
2019-01-26T10:56:02.966Z,100056.53
2019-01-26T10:58:31.976Z,100055.38
2019-01-26T11:01:01.020Z,100058.88
2019-01-26T11:03:30.037Z,100049.11
2019-01-26T11:05:59.094Z,100058.11
2019-01-26T11:08:28.110Z,100049.81
2019-01-26T11:10:57.271Z,100052.41
2019-01-26T11:13:26.347Z,100050.22
2019-01-26T11:15:55.362Z,100054.75
2019-01-26T11:18:24.426Z,100049.55
2019-01-26T11:20:53.437Z,100052.88
2019-01-26T11:23:22.476Z,100049.61
2019-01-26T11:25:51.534Z,100048.34
2019-01-26T11:28:20.553Z,100046.58
2019-01-26T11:30:49.616Z,100049.11
2019-01-26T11:33:18.774Z,100044.77
2019-01-26T11:35:47.795Z,100043.48
2019-01-26T11:38:16.837Z,100048.67
2019-01-26T11:40:46.012Z,100042.21
2019-01-26T11:43:15.026Z,100046.44
2019-01-26T11:46:04.817Z,100041.98
2019-01-26T11:48:37.188Z,100042.25
2019-01-26T11:51:37.388Z,100038.42
2019-01-26T11:54:06.553Z,100032.53
2019-01-26T11:56:42.462Z,100034.30
2019-01-26T11:59:11.532Z,100033.59
2019-01-26T12:01:51.582Z,100036.16
2019-01-26T12:04:38.489Z,100035.41
2019-01-26T12:07:13.049Z,100031.14
2019-01-26T12:09:42.100Z,100041.06
2019-01-26T12:12:11.124Z,100037.44
2019-01-26T12:14:40.182Z,100042.69
2019-01-26T12:17:09.318Z,100034.40
2019-01-26T12:19:38.352Z,100035.34
2019-01-26T12:22:07.653Z,100026.22
2019-01-26T12:24:36.684Z,100019.34
2019-01-26T12:27:05.842Z,100015.44
2019-01-26T12:29:34.854Z,100012.43
2019-01-26T12:32:03.862Z,100009.31
2019-01-26T12:34:32.929Z,100010.26
2019-01-26T12:37:01.944Z,100011.13
2019-01-26T12:39:30.962Z,100013.34
2019-01-26T12:42:00.018Z,100013.41
2019-01-26T12:44:29.034Z,100010.77
2019-01-26T12:46:58.101Z,100006.00
2019-01-26T12:49:29.659Z,100000.14
2019-01-26T12:51:57.857Z,100006.08
2019-01-26T12:54:26.892Z,99999.96
2019-01-26T12:56:55.983Z,99997.10
2019-01-26T12:59:24.981Z,99991.56
2019-01-26T13:01:54.089Z,99993.27
2019-01-26T13:04:23.143Z,99986.80
2019-01-26T13:06:52.168Z,99988.49
2019-01-26T13:09:21.231Z,99988.60
2019-01-26T13:11:50.250Z,99985.45
2019-01-26T13:14:19.413Z,99979.56
2019-01-26T13:16:48.470Z,99978.66
2019-01-26T13:19:17.477Z,99971.09
2019-01-26T13:21:46.497Z,99973.19
2019-01-26T13:24:15.554Z,99969.72
2019-01-26T13:26:44.564Z,99968.05
2019-01-26T13:29:13.617Z,99958.69
2019-01-26T13:31:42.969Z,99954.06
2019-01-26T13:34:12.047Z,99957.53
2019-01-26T13:36:41.057Z,99947.48
2019-01-26T13:39:10.744Z,99952.18
2019-01-26T13:41:39.766Z,99950.08
2019-01-26T13:44:08.803Z,99948.38
2019-01-26T13:46:37.852Z,99940.32
2019-01-26T13:49:06.906Z,99947.55
2019-01-26T13:51:35.916Z,99942.52
2019-01-26T13:54:05.448Z,99937.50
2019-01-26T13:56:34.451Z,99941.33
2019-01-26T13:59:03.505Z,99938.91
2019-01-26T14:01:32.560Z,99934.86
2019-01-26T14:04:01.576Z,99929.91
2019-01-26T14:06:30.544Z,99919.89
2019-01-26T14:08:59.555Z,99926.68
2019-01-26T14:11:28.627Z,99911.90
2019-01-26T14:13:57.635Z,99913.27
2019-01-26T14:16:26.685Z,99908.72
2019-01-26T14:18:55.784Z,99905.45
2019-01-26T14:21:25.032Z,99903.36
2019-01-26T14:23:54.035Z,99905.49
2019-01-26T14:26:23.456Z,99904.66
2019-01-26T14:28:52.471Z,99900.50
2019-01-26T14:31:21.480Z,99895.88
2019-01-26T14:33:50.568Z,99897.58
2019-01-26T14:36:19.567Z,99894.25
2019-01-26T14:38:48.628Z,99893.45
2019-01-26T14:41:17.560Z,99887.23
2019-01-26T14:43:46.613Z,99891.06
2019-01-26T14:46:15.860Z,99891.16
2019-01-26T14:48:44.868Z,99888.23
2019-01-26T14:51:13.930Z,99886.24
2019-01-26T14:53:47.651Z,99883.78
2019-01-26T14:56:13.775Z,99886.77
2019-01-26T14:58:42.821Z,99885.98
2019-01-26T15:01:11.828Z,99875.09
2019-01-26T15:03:40.872Z,99877.66
2019-01-26T15:06:09.891Z,99873.13
2019-01-26T15:08:39.052Z,99866.08
2019-01-26T15:11:08.071Z,99867.01
2019-01-26T15:13:37.108Z,99868.70
2019-01-26T15:16:06.367Z,99866.58
2019-01-26T15:18:35.468Z,99867.47
2019-01-26T15:21:05.016Z,99864.55
2019-01-26T15:23:34.065Z,99852.41
2019-01-26T15:26:03.113Z,99855.86
2019-01-26T15:28:32.044Z,99855.09
2019-01-26T15:31:01.112Z,99857.69
2019-01-26T15:33:30.478Z,99858.08
2019-01-26T15:35:59.485Z,99850.63
2019-01-26T15:38:28.505Z,99851.95
2019-01-26T15:40:57.562Z,99846.50
2019-01-26T15:43:26.721Z,99858.36
2019-01-26T15:45:55.769Z,99853.41
2019-01-26T15:48:24.785Z,99852.57
2019-01-26T15:50:53.828Z,99839.14
2019-01-26T15:53:22.885Z,99845.48
2019-01-26T15:55:51.944Z,99840.86
2019-01-26T15:58:20.971Z,99842.19
2019-01-26T16:00:50.012Z,99841.78
2019-01-26T16:03:19.063Z,99836.30
2019-01-26T16:05:48.068Z,99836.39
2019-01-26T16:08:17.127Z,99837.66
2019-01-26T16:10:46.136Z,99825.49
2019-01-26T16:13:15.178Z,99822.08
2019-01-26T16:15:44.216Z,99821.30
2019-01-26T16:18:15.443Z,99804.58
2019-01-26T16:20:44.494Z,99805.01
2019-01-26T16:23:13.500Z,99808.02
2019-01-26T16:25:42.508Z,99801.34
2019-01-26T16:28:11.545Z,99791.27
2019-01-26T16:30:40.727Z,99795.16
2019-01-26T16:33:09.775Z,99787.14
2019-01-26T16:35:38.821Z,99777.08
2019-01-26T16:38:07.855Z,99770.37
2019-01-26T16:40:37.323Z,99765.37
2019-01-26T16:43:06.376Z,99763.22
2019-01-26T16:45:37.747Z,99774.58
2019-01-26T16:48:08.848Z,99778.40
2019-01-26T16:50:37.962Z,99769.53
2019-01-26T16:53:06.977Z,99772.06
2019-01-26T16:55:36.019Z,99769.04
2019-01-26T16:58:05.541Z,99773.27
2019-01-26T17:00:43.357Z,99768.58
2019-01-26T17:03:12.564Z,99764.77
2019-01-26T17:05:41.609Z,99759.69
2019-01-26T17:08:11.037Z,99755.49
2019-01-26T17:10:40.069Z,99755.89
2019-01-26T17:13:09.225Z,99758.02
2019-01-26T17:15:38.329Z,99750.44
2019-01-26T17:18:13.662Z,99752.97
2019-01-26T17:20:39.984Z,99737.36
2019-01-26T17:23:09.119Z,99728.52
2019-01-26T17:25:38.165Z,99717.63
2019-01-26T17:28:07.287Z,99716.85
2019-01-26T17:30:38.369Z,99712.33
2019-01-26T17:33:07.948Z,99705.55
2019-01-26T17:35:37.239Z,99710.14
2019-01-26T17:38:06.979Z,99704.66
2019-01-26T17:40:36.033Z,99697.15
2019-01-26T17:43:05.215Z,99684.19
2019-01-26T17:45:34.227Z,99682.53
2019-01-26T17:48:03.300Z,99675.89
2019-01-26T17:50:32.336Z,99673.77
2019-01-26T17:53:01.353Z,99676.22
2019-01-26T17:55:30.398Z,99673.30
2019-01-26T17:57:59.451Z,99660.74
2019-01-26T18:00:44.680Z,99664.06
2019-01-26T18:03:13.749Z,99658.52
2019-01-26T18:05:42.769Z,99651.84
2019-01-26T18:08:12.078Z,99663.66
2019-01-26T18:10:41.214Z,99648.63
2019-01-26T18:13:10.273Z,99646.89
2019-01-26T18:15:39.335Z,99650.68
2019-01-26T18:18:08.339Z,99638.95
2019-01-26T18:20:37.379Z,99634.04
2019-01-26T18:23:06.849Z,99623.14
2019-01-26T18:25:37.843Z,99626.47
2019-01-26T18:28:06.898Z,99623.21
2019-01-26T18:30:36.756Z,99618.13
2019-01-26T18:33:06.001Z,99617.23
2019-01-26T18:35:35.008Z,99612.66
2019-01-26T18:38:04.279Z,99613.05
2019-01-26T18:40:33.336Z,99605.45
2019-01-26T18:43:02.587Z,99607.14
2019-01-26T18:45:31.651Z,99592.86
2019-01-26T18:48:00.702Z,99586.95
2019-01-26T18:50:31.800Z,99590.34
2019-01-26T18:53:00.909Z,99590.41
2019-01-26T18:55:29.931Z,99584.09
2019-01-26T18:57:58.971Z,99579.34
2019-01-26T19:00:30.422Z,99577.66
2019-01-26T19:03:12.174Z,99574.27
2019-01-26T19:05:41.181Z,99575.20
2019-01-26T19:08:10.384Z,99572.23
2019-01-26T19:10:39.442Z,99555.01
2019-01-26T19:13:08.448Z,99557.50
2019-01-26T19:15:37.608Z,99549.49
2019-01-26T19:18:06.623Z,99542.79
2019-01-26T19:20:35.633Z,99537.38
2019-01-26T19:23:05.025Z,99533.20
2019-01-26T19:25:34.078Z,99539.94
2019-01-26T19:28:03.129Z,99537.45
2019-01-26T19:30:32.172Z,99532.36
2019-01-26T19:33:01.232Z,99532.26
2019-01-26T19:35:30.335Z,99517.19
2019-01-26T19:37:59.345Z,99520.98
2019-01-26T19:40:28.403Z,99514.59
2019-01-26T19:42:57.412Z,99511.71
2019-01-26T19:45:26.416Z,99506.23
2019-01-26T19:47:55.467Z,99502.91
2019-01-26T19:50:24.659Z,99500.75
2019-01-26T19:52:53.674Z,99503.59
2019-01-26T19:55:23.567Z,99490.91
2019-01-26T19:57:52.603Z,99488.82
2019-01-26T20:00:21.754Z,99488.71
2019-01-26T20:02:50.760Z,99480.67
2019-01-26T20:05:20.820Z,99475.08
2019-01-26T20:07:50.870Z,99471.29
2019-01-26T20:10:20.548Z,99466.02
2019-01-26T20:12:49.557Z,99464.75
2019-01-26T20:15:19.844Z,99457.02
2019-01-26T20:17:49.080Z,99454.34
2019-01-26T20:20:27.143Z,99447.00
2019-01-26T20:22:56.209Z,99448.19
2019-01-26T20:25:25.232Z,99449.29
2019-01-26T20:27:54.251Z,99442.58
2019-01-26T20:30:28.884Z,99438.23
2019-01-26T20:32:58.077Z,99441.03
2019-01-26T20:35:27.167Z,99445.99
2019-01-26T20:37:56.317Z,99435.38
2019-01-26T20:40:25.527Z,99432.37
2019-01-26T20:42:54.804Z,99427.63
2019-01-26T20:45:25.677Z,99422.92
2019-01-26T20:47:54.687Z,99418.73
2019-01-26T20:50:23.830Z,99409.38
2019-01-26T20:52:52.973Z,99407.59
2019-01-26T20:55:22.180Z,99396.04
2019-01-26T20:57:51.229Z,99394.25
2019-01-26T21:00:25.581Z,99393.03
2019-01-26T21:02:54.952Z,99395.86
2019-01-26T21:05:23.966Z,99395.34
2019-01-26T21:07:53.049Z,99394.03
2019-01-26T21:10:27.285Z,99387.62
2019-01-26T21:12:56.340Z,99387.05
2019-01-26T21:15:25.564Z,99377.72
2019-01-26T21:17:54.563Z,99375.92
2019-01-26T21:20:24.419Z,99372.57
2019-01-26T21:22:53.475Z,99377.63
2019-01-26T21:25:22.683Z,99367.42
2019-01-26T21:27:51.716Z,99364.41
2019-01-26T21:30:26.028Z,99353.03
2019-01-26T21:32:55.182Z,99350.84
2019-01-26T21:35:25.307Z,99351.77
2019-01-26T21:37:54.368Z,99352.16
2019-01-26T21:40:25.490Z,99354.30
2019-01-26T21:42:54.653Z,99342.09
2019-01-26T21:45:23.972Z,99345.45
2019-01-26T21:47:53.032Z,99343.70
2019-01-26T21:50:24.180Z,99338.25
2019-01-26T21:52:53.234Z,99337.72
2019-01-26T21:55:22.407Z,99334.75
2019-01-26T21:57:51.420Z,99328.58
2019-01-26T22:00:22.944Z,99322.98
2019-01-26T22:02:52.021Z,99322.16
2019-01-26T22:05:21.191Z,99326.77
2019-01-26T22:07:50.245Z,99319.62
2019-01-26T22:10:20.216Z,99309.08
2019-01-26T22:12:49.294Z,99308.20
2019-01-26T22:15:20.199Z,99302.75
2019-01-26T22:17:49.363Z,99299.84
2019-01-26T22:20:20.284Z,99299.02
2019-01-26T22:22:49.731Z,99294.88
2019-01-26T22:25:19.245Z,99300.81
2019-01-26T22:27:48.400Z,99292.34
2019-01-26T22:30:22.658Z,99286.47
2019-01-26T22:32:51.868Z,99276.89
2019-01-26T22:35:21.209Z,99273.44
2019-01-26T22:37:50.265Z,99271.44
2019-01-26T22:40:21.863Z,99266.38
2019-01-26T22:42:50.867Z,99262.93
2019-01-26T22:45:19.929Z,99246.16
2019-01-26T22:47:48.935Z,99247.42
2019-01-26T22:50:19.058Z,99245.38
2019-01-26T22:52:48.207Z,99241.83
2019-01-26T22:55:18.280Z,99228.36
2019-01-26T22:57:47.621Z,99230.16
2019-01-26T23:00:52.115Z,99226.71
2019-01-26T23:03:24.007Z,99229.82
2019-01-26T23:06:34.789Z,99225.64
2019-01-26T23:09:13.228Z,99219.71
2019-01-26T23:12:00.841Z,99209.41
2019-01-26T23:15:09.712Z,99195.99
2019-01-26T23:18:06.601Z,99195.90
2019-01-26T23:20:49.521Z,99195.61
2019-01-26T23:24:01.635Z,99190.11
2019-01-26T23:27:30.182Z,99184.96
2019-01-26T23:30:23.824Z,99171.70
2019-01-26T23:32:52.895Z,99162.61
2019-01-26T23:35:22.007Z,99155.61
2019-01-26T23:37:51.016Z,99155.28
2019-01-26T23:40:20.073Z,99158.73
2019-01-26T23:42:49.127Z,99154.55
2019-01-26T23:45:18.143Z,99157.42
2019-01-26T23:47:47.184Z,99142.64
2019-01-26T23:50:16.193Z,99144.78
2019-01-26T23:52:45.239Z,99141.77
2019-01-26T23:55:14.461Z,99136.66
2019-01-26T23:57:43.466Z,99131.07
